Ampthill, Virginia
Current Conditions -  °F | °C
As of 4:54 PM on Friday 24 Oct 2014 (Local Time) from KRIC Reporting Station
Broken Clouds Broken Clouds  
Wind Chill: 69°   Ceiling: 30000
Heat Index: 69°   Visibility: 10mi
Dew Point: 39°   Wind: 8mph
Humidity: 33%   Direction: 310°NW
Pressure: 29.93"   Gusts: NA
Location:  37.4513°N, 77.4708°W
Report Text: KRIC 242054Z 31007KT 10SM SCT200 BKN300 21/04 A2993 RMK AO2 SLP138 T02060039 56009
Loading
Personal Weather Stations






























Interactive Weather Map
Tropical Storm Tracking
New forecast layout! Learn more

10-Day Weather Forecast

Advertisements
Track Severe Weather on mobile